Time,TemperatureF,DewpointF,PressureIn,WindDirection,WindDirectionDegrees,WindSpeedMPH,WindSpeedGustMPH,Humidity,HourlyPrecipIn,Conditions,Clouds,dailyrainin,SoftwareType,DateUTC
2013-05-16 00:00:00,63.0,60.0,29.88,SE,140,7.0,12.0,90,-99.99,,,-99.99,,2013-05-16 05:00:00,
2013-05-16 00:02:00,63.0,59.0,29.89,SE,145,7.0,10.0,89,-99.99,,,-99.99,,2013-05-16 05:02:00,
2013-05-16 00:12:00,63.0,60.0,29.88,SSE,150,8.0,11.0,90,-99.99,,,-99.99,,2013-05-16 05:12:00,
2013-05-16 00:22:00,63.0,60.0,29.88,SSE,150,8.0,11.0,90,-99.99,,,-99.99,,2013-05-16 05:22:00,
2013-05-16 00:32:00,62.0,59.0,29.88,SE,145,7.0,10.0,90,-99.99,,,-99.99,,2013-05-16 05:32:00,
2013-05-16 00:42:00,63.0,60.0,29.88,SE,140,7.0,12.0,90,-99.99,,,-99.99,,2013-05-16 05:42:00,
2013-05-16 00:52:00,63.0,60.0,29.88,SE,140,7.0,12.0,90,-99.99,,,-99.99,,2013-05-16 05:52:00,
2013-05-16 01:12:00,63.0,60.0,29.88,SE,145,7.0,10.0,90,-99.99,,,-99.99,,2013-05-16 06:12:00,
2013-05-16 01:22:00,63.0,60.0,29.88,SE,145,7.0,10.0,90,-99.99,,,-99.99,,2013-05-16 06:22:00,
2013-05-16 01:33:00,62.0,59.0,29.87,SE,145,6.0,10.0,90,-99.99,,,-99.99,,2013-05-16 06:33:00,
2013-05-16 01:43:00,63.0,60.0,29.87,SSE,150,10.0,14.0,91,-99.99,,,-99.99,,2013-05-16 06:43:00,
2013-05-16 01:52:00,63.0,60.0,29.87,SSE,150,10.0,14.0,91,-99.99,,,-99.99,,2013-05-16 06:52:00,
2013-05-16 02:02:00,63.0,60.0,29.87,SSE,155,11.0,15.0,90,-99.99,,,-99.99,,2013-05-16 07:02:00,
2013-05-16 02:12:00,63.0,61.0,29.87,SSE,150,10.0,15.0,90,-99.99,,,-99.99,,2013-05-16 07:12:00,
2013-05-16 02:24:00,63.0,61.0,29.87,SSE,150,10.0,15.0,90,-99.99,,,-99.99,,2013-05-16 07:24:00,
2013-05-16 02:34:00,64.0,61.0,29.87,SSE,165,8.0,15.0,89,-99.99,,,-99.99,,2013-05-16 07:34:00,
2013-05-16 02:44:00,64.0,61.0,29.87,SSE,155,11.0,14.0,89,-99.99,,,-99.99,,2013-05-16 07:44:00,
2013-05-16 02:54:00,64.0,61.0,29.87,SSE,155,11.0,14.0,89,-99.99,,,-99.99,,2013-05-16 07:54:00,
2013-05-16 03:03:00,64.0,61.0,29.87,SSE,155,9.0,13.0,89,-99.99,,,-99.99,,2013-05-16 08:03:00,
2013-05-16 03:13:00,64.0,61.0,29.87,SSE,150,9.0,14.0,88,-99.99,,,-99.99,,2013-05-16 08:13:00,
2013-05-16 03:24:00,64.0,61.0,29.87,SSE,150,9.0,14.0,88,-99.99,,,-99.99,,2013-05-16 08:24:00,
2013-05-16 03:34:00,64.0,60.0,29.87,SE,140,7.0,11.0,88,-99.99,,,-99.99,,2013-05-16 08:34:00,
2013-05-16 03:45:00,64.0,60.0,29.87,SSE,150,9.0,13.0,88,-99.99,,,-99.99,,2013-05-16 08:45:00,
2013-05-16 03:54:00,64.0,60.0,29.87,SSE,150,9.0,13.0,88,-99.99,,,-99.99,,2013-05-16 08:54:00,
2013-05-16 04:04:00,64.0,60.0,29.88,SSE,150,9.0,15.0,88,-99.99,,,-99.99,,2013-05-16 09:04:00,
2013-05-16 04:14:00,64.0,60.0,29.88,SSE,155,9.0,13.0,88,-99.99,,,-99.99,,2013-05-16 09:14:00,
2013-05-16 04:24:00,64.0,60.0,29.88,SSE,155,9.0,13.0,88,-99.99,,,-99.99,,2013-05-16 09:24:00,
2013-05-16 04:35:00,64.0,60.0,29.88,SE,145,8.0,13.0,88,-99.99,,,-99.99,,2013-05-16 09:35:00,
2013-05-16 04:45:00,64.0,60.0,29.88,SSE,150,8.0,13.0,88,-99.99,,,-99.99,,2013-05-16 09:45:00,
2013-05-16 04:55:00,64.0,60.0,29.88,SSE,150,8.0,13.0,88,-99.99,,,-99.99,,2013-05-16 09:55:00,
2013-05-16 05:05:00,63.0,60.0,29.88,ESE,110,5.0,10.0,88,-99.99,,,-99.99,,2013-05-16 10:05:00,
2013-05-16 05:15:00,63.0,60.0,29.89,ESE,115,5.0,7.0,88,-99.99,,,-99.99,,2013-05-16 10:15:00,
2013-05-16 05:24:00,63.0,60.0,29.89,ESE,115,5.0,7.0,88,-99.99,,,-99.99,,2013-05-16 10:24:00,
2013-05-16 05:36:00,63.0,60.0,29.89,ESE,110,8.0,10.0,89,-99.99,,,-99.99,,2013-05-16 10:36:00,
2013-05-16 05:45:00,63.0,60.0,29.89,ESE,105,6.0,9.0,89,-99.99,,,-99.99,,2013-05-16 10:45:00,
2013-05-16 05:56:00,63.0,60.0,29.89,ESE,105,6.0,9.0,89,-99.99,,,-99.99,,2013-05-16 10:56:00,
2013-05-16 06:05:00,63.0,60.0,29.89,ESE,105,6.0,9.0,89,-99.99,,,-99.99,,2013-05-16 11:05:00,
2013-05-16 06:14:00,63.0,60.0,29.89,ESE,120,5.0,8.0,89,-99.99,,,-99.99,,2013-05-16 11:14:00,
2013-05-16 06:25:00,63.0,60.0,29.89,ESE,120,5.0,8.0,89,-99.99,,,-99.99,,2013-05-16 11:25:00,
2013-05-16 06:35:00,63.0,60.0,29.89,ESE,120,6.0,10.0,89,-99.99,,,-99.99,,2013-05-16 11:35:00,
2013-05-16 06:46:00,63.0,59.0,29.88,SE,125,6.0,10.0,89,-99.99,,,-99.99,,2013-05-16 11:46:00,
2013-05-16 06:56:00,63.0,59.0,29.88,SE,125,6.0,10.0,89,-99.99,,,-99.99,,2013-05-16 11:56:00,
2013-05-16 07:06:00,63.0,59.0,29.88,SE,135,10.0,14.0,89,-99.99,,,-99.99,,2013-05-16 12:06:00,
2013-05-16 07:13:00,63.0,59.0,29.88,SE,145,9.0,13.0,89,-99.99,,,-99.99,,2013-05-16 12:13:00,
2013-05-16 07:23:00,63.0,59.0,29.88,SE,145,9.0,13.0,89,-99.99,,,-99.99,,2013-05-16 12:23:00,
2013-05-16 07:35:00,63.0,59.0,29.88,SSE,150,11.0,15.0,89,-99.99,,,-99.99,,2013-05-16 12:35:00,
2013-05-16 07:45:00,63.0,60.0,29.88,SE,145,9.0,16.0,89,-99.99,,,-99.99,,2013-05-16 12:45:00,
2013-05-16 07:53:00,63.0,60.0,29.88,SE,145,9.0,16.0,89,-99.99,,,-99.99,,2013-05-16 12:53:00,
2013-05-16 08:00:00,63.0,59.0,29.89,ESE,120,8.0,13.0,87,-99.99,,,-99.99,,2013-05-16 13:00:00,
2013-05-16 08:04:00,63.0,59.0,29.89,SE,135,4.0,11.0,88,-99.99,,,-99.99,,2013-05-16 13:04:00,
2013-05-16 08:12:00,63.0,59.0,29.89,SE,130,4.0,11.0,88,-99.99,,,-99.99,,2013-05-16 13:12:00,
2013-05-16 08:26:00,63.0,59.0,29.89,SE,130,4.0,11.0,88,-99.99,,,-99.99,,2013-05-16 13:26:00,
2013-05-16 08:35:00,63.0,59.0,29.89,ESE,115,6.0,11.0,87,-99.99,,,-99.99,,2013-05-16 13:35:00,
2013-05-16 08:43:00,63.0,59.0,29.89,ESE,120,8.0,13.0,87,-99.99,,,-99.99,,2013-05-16 13:43:00,
2013-05-16 08:55:00,63.0,59.0,29.89,ESE,120,8.0,13.0,87,-99.99,,,-99.99,,2013-05-16 13:55:00,
2013-05-16 09:00:00,63.0,58.0,29.91,SSE,150,13.0,18.0,84,-99.99,,,-99.99,,2013-05-16 14:00:00,
2013-05-16 09:16:00,63.0,59.0,29.91,SE,135,9.0,13.0,85,-99.99,,,-99.99,,2013-05-16 14:16:00,
2013-05-16 09:23:00,63.0,59.0,29.91,SE,135,9.0,13.0,85,-99.99,,,-99.99,,2013-05-16 14:23:00,
2013-05-16 09:37:00,63.0,58.0,29.91,SSE,150,12.0,18.0,84,-99.99,,,-99.99,,2013-05-16 14:37:00,
2013-05-16 09:47:00,63.0,58.0,29.91,SSE,150,13.0,18.0,84,-99.99,,,-99.99,,2013-05-16 14:47:00,
2013-05-16 09:55:00,63.0,58.0,29.91,SSE,150,13.0,18.0,84,-99.99,,,-99.99,,2013-05-16 14:55:00,
2013-05-16 10:00:00,65.0,59.0,29.90,SE,135,9.0,14.0,81,-99.99,,,-99.99,,2013-05-16 15:00:00,
2013-05-16 10:17:00,63.0,58.0,29.91,SE,145,10.0,14.0,84,-99.99,,,-99.99,,2013-05-16 15:17:00,
2013-05-16 10:28:00,63.0,58.0,29.91,SE,145,10.0,14.0,84,-99.99,,,-99.99,,2013-05-16 15:28:00,
2013-05-16 10:30:00,65.0,58.0,29.89,SSE,150,10.0,14.0,79,-99.99,,,-99.99,,2013-05-16 15:30:00,
2013-05-16 10:40:00,64.0,59.0,29.91,SE,125,5.0,13.0,84,-99.99,,,-99.99,,2013-05-16 15:40:00,
2013-05-16 10:50:00,65.0,59.0,29.90,SE,135,9.0,14.0,81,-99.99,,,-99.99,,2013-05-16 15:50:00,
2013-05-16 11:00:00,65.0,58.0,29.90,SE,145,10.0,16.0,79,-99.99,,,-99.99,,2013-05-16 16:00:00,
2013-05-16 11:09:00,65.0,58.0,29.90,SSE,150,9.0,13.0,79,-99.99,,,-99.99,,2013-05-16 16:09:00,
2013-05-16 11:20:00,65.0,58.0,29.89,SSE,150,10.0,14.0,79,-99.99,,,-99.99,,2013-05-16 16:20:00,
2013-05-16 11:30:00,65.0,58.0,29.90,SE,130,7.0,15.0,80,-99.99,,,-99.99,,2013-05-16 16:30:00,
2013-05-16 11:40:00,65.0,-99.9,29.90,SE,145,13.0,17.0,78,-99.99,,,-99.99,,2013-05-16 16:40:00,
2013-05-16 11:50:00,65.0,58.0,29.90,SE,145,10.0,16.0,79,-99.99,,,-99.99,,2013-05-16 16:50:00,
2013-05-16 12:00:00,65.0,-99.9,29.89,SE,135,9.0,15.0,78,-99.99,,,-99.99,,2013-05-16 17:00:00,
2013-05-16 12:10:00,64.0,58.0,29.90,ESE,115,7.0,13.0,80,-99.99,,,-99.99,,2013-05-16 17:10:00,
2013-05-16 12:20:00,65.0,58.0,29.90,SE,130,7.0,15.0,80,-99.99,,,-99.99,,2013-05-16 17:20:00,
2013-05-16 12:30:00,-999.0,-99.9,29.88,SSE,155,12.0,20.0,78,-99.99,,,-99.99,,2013-05-16 17:30:00,
2013-05-16 12:40:00,65.0,58.0,29.90,SE,145,7.0,12.0,80,-99.99,,,-99.99,,2013-05-16 17:40:00,
2013-05-16 12:50:00,65.0,-99.9,29.89,SE,135,9.0,15.0,78,-99.99,,,-99.99,,2013-05-16 17:50:00,
2013-05-16 13:00:00,-999.0,-99.9,29.88,SE,145,12.0,22.0,79,-99.99,,,-99.99,,2013-05-16 18:00:00,
2013-05-16 13:10:00,65.0,58.0,29.88,SE,140,12.0,19.0,77,-99.99,,,-99.99,,2013-05-16 18:10:00,
2013-05-16 13:20:00,65.0,58.0,29.88,SSE,155,12.0,20.0,78,-99.99,,,-99.99,,2013-05-16 18:20:00,
2013-05-16 13:30:00,64.0,58.0,29.89,SE,145,13.0,17.0,80,-99.99,,,-99.99,,2013-05-16 18:30:00,
2013-05-16 13:40:00,-999.0,-99.9,29.88,SSE,150,15.0,20.0,77,-99.99,,,-99.99,,2013-05-16 18:40:00,
2013-05-16 13:50:00,-999.0,-99.9,29.88,SE,145,12.0,22.0,79,-99.99,,,-99.99,,2013-05-16 18:50:00,
2013-05-16 14:00:00,64.0,-99.9,29.90,SE,145,8.0,15.0,82,-99.99,,,-99.99,,2013-05-16 19:00:00,
2013-05-16 14:10:00,64.0,58.0,29.89,SSE,155,13.0,19.0,81,-99.99,,,-99.99,,2013-05-16 19:10:00,
2013-05-16 14:20:00,64.0,58.0,29.89,SE,145,13.0,17.0,80,-99.99,,,-99.99,,2013-05-16 19:20:00,
2013-05-16 14:30:00,63.0,-99.9,29.90,SSE,165,10.0,15.0,85,-99.99,,,-99.99,,2013-05-16 19:30:00,
2013-05-16 14:40:00,64.0,-99.9,29.89,SSE,150,12.0,16.0,81,-99.99,,,-99.99,,2013-05-16 19:40:00,
2013-05-16 14:50:00,-999.0,-99.9,29.90,SE,145,8.0,15.0,82,-99.99,,,-99.99,,2013-05-16 19:50:00,
2013-05-16 15:00:00,63.0,59.0,29.89,SE,130,6.0,13.0,86,-99.99,,,-99.99,,2013-05-16 20:00:00,
2013-05-16 15:10:00,-999.0,-99.9,29.90,SSE,165,12.0,15.0,83,-99.99,,,-99.99,,2013-05-16 20:10:00,
2013-05-16 15:20:00,63.0,-99.9,29.90,SSE,165,10.0,15.0,85,-99.99,,,-99.99,,2013-05-16 20:20:00,
2013-05-16 15:40:00,-999.0,-99.9,29.90,SE,145,9.0,13.0,86,-99.99,,,-99.99,,2013-05-16 20:40:00,
2013-05-16 15:50:00,63.0,59.0,29.89,SE,130,6.0,13.0,86,-99.99,,,-99.99,,2013-05-16 20:50:00,
2013-05-16 16:00:00,-999.0,-99.9,29.88,SE,135,9.0,15.0,86,-99.99,,,-99.99,,2013-05-16 21:00:00,
2013-05-16 16:10:00,64.0,-99.9,29.88,SE,145,10.0,15.0,86,-99.99,,,-99.99,,2013-05-16 21:10:00,
2013-05-16 16:20:00,64.0,-99.9,29.88,SE,140,11.0,17.0,85,-99.99,,,-99.99,,2013-05-16 21:20:00,
2013-05-16 16:29:00,64.0,59.0,29.88,SE,140,11.0,17.0,85,-99.99,,,-99.99,,2013-05-16 21:29:00,
2013-05-16 16:30:00,64.0,59.0,29.87,SE,135,10.0,14.0,85,-99.99,,,-99.99,,2013-05-16 21:30:00,
2013-05-16 16:38:00,64.0,59.0,29.88,SE,140,9.0,13.0,86,-99.99,,,-99.99,,2013-05-16 21:38:00,
2013-05-16 16:50:00,64.0,-99.9,29.88,SE,135,9.0,15.0,86,-99.99,,,-99.99,,2013-05-16 21:50:00,
2013-05-16 17:00:00,64.0,59.0,29.86,SE,130,10.0,14.0,83,-99.99,,,-99.99,,2013-05-16 22:00:00,
2013-05-16 17:08:00,64.0,59.0,29.87,SE,145,8.0,15.0,85,-99.99,,,-99.99,,2013-05-16 22:08:00,
2013-05-16 17:21:00,64.0,59.0,29.87,SE,135,10.0,14.0,85,-99.99,,,-99.99,,2013-05-16 22:21:00,
2013-05-16 17:40:00,64.0,59.0,29.86,ESE,120,7.0,16.0,84,-99.99,,,-99.99,,2013-05-16 22:40:00,
2013-05-16 17:50:00,64.0,59.0,29.86,SE,130,10.0,14.0,83,-99.99,,,-99.99,,2013-05-16 22:50:00,
2013-05-16 18:06:00,64.0,58.0,29.86,SSE,155,9.0,14.0,81,-99.99,,,-99.99,,2013-05-16 23:06:00,
2013-05-16 18:16:00,65.0,59.0,29.85,ESE,120,8.0,15.0,82,-99.99,,,-99.99,,2013-05-16 23:16:00,
2013-05-16 18:24:00,65.0,59.0,29.85,ESE,120,8.0,15.0,82,-99.99,,,-99.99,,2013-05-16 23:24:00,
2013-05-16 18:35:00,63.0,57.0,29.86,ESE,115,12.0,18.0,82,-99.99,,,-99.99,,2013-05-16 23:35:00,
2013-05-16 18:45:00,63.0,58.0,29.86,SE,145,7.0,16.0,83,-99.99,,,-99.99,,2013-05-16 23:45:00,
2013-05-16 18:54:00,63.0,58.0,29.86,SE,145,7.0,16.0,83,-99.99,,,-99.99,,2013-05-16 23:54:00,
2013-05-16 19:02:00,63.0,58.0,29.86,SE,140,11.0,16.0,83,-99.99,,,-99.99,,2013-05-17 00:02:00,
2013-05-16 19:13:00,62.0,57.0,29.86,SE,145,10.0,15.0,83,-99.99,,,-99.99,,2013-05-17 00:13:00,
2013-05-16 19:22:00,62.0,57.0,29.86,SE,145,10.0,15.0,83,-99.99,,,-99.99,,2013-05-17 00:22:00,
2013-05-16 19:33:00,62.0,57.0,29.86,ESE,115,8.0,13.0,84,-99.99,,,-99.99,,2013-05-17 00:33:00,
2013-05-16 19:43:00,62.0,57.0,29.86,SE,135,7.0,15.0,85,-99.99,,,-99.99,,2013-05-17 00:43:00,
2013-05-16 19:52:00,62.0,57.0,29.86,SE,135,7.0,15.0,85,-99.99,,,-99.99,,2013-05-17 00:52:00,
2013-05-16 20:03:00,62.0,57.0,29.85,ESE,105,8.0,14.0,85,-99.99,,,-99.99,,2013-05-17 01:03:00,
2013-05-16 20:12:00,62.0,57.0,29.85,ESE,120,7.0,12.0,85,-99.99,,,-99.99,,2013-05-17 01:12:00,
2013-05-16 20:23:00,62.0,57.0,29.85,ESE,120,7.0,12.0,85,-99.99,,,-99.99,,2013-05-17 01:23:00,
2013-05-16 20:32:00,62.0,57.0,29.85,ESE,115,9.0,14.0,86,-99.99,,,-99.99,,2013-05-17 01:32:00,
2013-05-16 20:43:00,62.0,57.0,29.85,SE,125,6.0,14.0,86,-99.99,,,-99.99,,2013-05-17 01:43:00,
2013-05-16 20:52:00,62.0,57.0,29.85,SE,125,6.0,14.0,86,-99.99,,,-99.99,,2013-05-17 01:52:00,
2013-05-16 21:02:00,61.0,57.0,29.85,SE,135,7.0,12.0,87,-99.99,,,-99.99,,2013-05-17 02:02:00,
2013-05-16 21:11:00,61.0,58.0,29.85,SE,140,8.0,12.0,88,-99.99,,,-99.99,,2013-05-17 02:11:00,
2013-05-16 21:22:00,61.0,58.0,29.85,SE,140,8.0,12.0,88,-99.99,,,-99.99,,2013-05-17 02:22:00,
2013-05-16 21:32:00,61.0,58.0,29.85,SE,140,5.0,10.0,89,-99.99,,,-99.99,,2013-05-17 02:32:00,
2013-05-16 21:42:00,61.0,58.0,29.85,SE,130,6.0,10.0,89,-99.99,,,-99.99,,2013-05-17 02:42:00,
2013-05-16 21:53:00,61.0,58.0,29.85,SE,130,6.0,10.0,89,-99.99,,,-99.99,,2013-05-17 02:53:00,
2013-05-16 22:02:00,61.0,58.0,29.86,SE,140,6.0,9.0,88,-99.99,,,-99.99,,2013-05-17 03:02:00,
2013-05-16 22:11:00,61.0,58.0,29.87,SE,140,5.0,9.0,88,-99.99,,,-99.99,,2013-05-17 03:11:00,
2013-05-16 22:22:00,61.0,58.0,29.87,SE,140,5.0,9.0,88,-99.99,,,-99.99,,2013-05-17 03:22:00,
2013-05-16 22:34:00,62.0,58.0,29.88,SE,140,6.0,9.0,88,-99.99,,,-99.99,,2013-05-17 03:34:00,
2013-05-16 22:43:00,61.0,58.0,29.88,SE,140,6.0,8.0,88,-99.99,,,-99.99,,2013-05-17 03:43:00,
2013-05-16 22:53:00,61.0,58.0,29.88,SE,140,6.0,8.0,88,-99.99,,,-99.99,,2013-05-17 03:53:00,
2013-05-16 23:02:00,61.0,58.0,29.88,SE,140,3.0,7.0,89,-99.99,,,-99.99,,2013-05-17 04:02:00,
2013-05-16 23:13:00,61.0,58.0,29.88,SSE,150,5.0,7.0,89,-99.99,,,-99.99,,2013-05-17 04:13:00,
2013-05-16 23:23:00,61.0,58.0,29.88,SSE,150,5.0,7.0,89,-99.99,,,-99.99,,2013-05-17 04:23:00,
2013-05-16 23:33:00,62.0,58.0,29.89,NE,55,1.0,5.0,89,-99.99,,,-99.99,,2013-05-17 04:33:00,
2013-05-16 23:43:00,61.0,58.0,29.89,SE,140,5.0,6.0,88,-99.99,,,-99.99,,2013-05-17 04:43:00,
2013-05-16 23:53:00,61.0,58.0,29.89,SE,140,5.0,6.0,88,-99.99,,,-99.99,,2013-05-17 04:53:00,